Time;durP1;ratioP1;P1;durP2;ratioP2;P2;SDS_P1;SDS_P2;PMS_P1;PMS_P2;Temp;Humidity;BMP_temperature;BMP_pressure;BME280_temperature;BME280_humidity;BME280_pressure;Samples;Min_cycle;Max_cycle;Signal;HPM_P1;HPM_P2
2022/06/13 00:00:21;;;;;;;6.15;1.90;;;;;;;;;;5062794;28;20243;-50
2022/06/13 00:02:47;;;;;;;3.97;1.52;;;;;;;;;;5065104;28;20235;-61
2022/06/13 00:05:15;;;;;;;3.72;2.28;;;;;;;;;;5062793;28;20235;-51
2022/06/13 00:07:42;;;;;;;2.03;1.83;;;;;;;;;;5062312;28;20241;-51
2022/06/13 00:10:10;;;;;;;3.58;1.88;;;;;;;;;;5061179;28;20237;-50
2022/06/13 00:12:37;;;;;;;4.60;1.85;;;;;;;;;;5065238;28;20255;-51
2022/06/13 00:15:03;;;;;;;3.97;1.90;;;;;;;;;;5063625;28;20322;-51
2022/06/13 00:17:30;;;;;;;8.20;2.38;;;;;;;;;;5059287;28;20239;-51
2022/06/13 00:19:56;;;;;;;3.10;2.13;;;;;;;;;;5065646;28;20402;-51
2022/06/13 00:22:22;;;;;;;3.42;2.05;;;;;;;;;;5065939;28;20235;-51
2022/06/13 00:24:50;;;;;;;5.75;2.28;;;;;;;;;;5064224;28;20242;-51
2022/06/13 00:27:17;;;;;;;6.32;1.85;;;;;;;;;;5058595;28;20242;-52
2022/06/13 00:29:47;;;;;;;2.92;1.73;;;;;;;;;;5064353;28;20231;-51
2022/06/13 00:32:14;;;;;;;4.65;1.90;;;;;;;;;;5058057;28;20326;-52
2022/06/13 00:34:40;;;;;;;4.50;1.50;;;;;;;;;;5061171;28;20241;-51
2022/06/13 00:37:07;;;;;;;3.83;1.98;;;;;;;;;;5058282;28;20761;-52
2022/06/13 00:39:34;;;;;;;2.22;1.63;;;;;;;;;;5062396;28;20247;-52
2022/06/13 00:42:01;;;;;;;4.30;2.33;;;;;;;;;;5057876;28;20262;-52
2022/06/13 00:44:29;;;;;;;8.82;2.58;;;;;;;;;;5064856;28;20243;-52
2022/06/13 00:46:56;;;;;;;4.50;2.63;;;;;;;;;;5055830;28;20266;-52
2022/06/13 00:49:25;;;;;;;5.93;2.05;;;;;;;;;;5060623;28;20227;-51
2022/06/13 00:51:54;;;;;;;2.33;1.63;;;;;;;;;;5058289;28;20239;-51
2022/06/13 00:54:21;;;;;;;2.83;1.92;;;;;;;;;;5056786;28;20243;-51
2022/06/13 00:56:49;;;;;;;3.65;1.80;;;;;;;;;;5064427;28;20873;-51
2022/06/13 00:59:18;;;;;;;8.45;2.25;;;;;;;;;;5054122;28;20235;-51
2022/06/13 01:01:45;;;;;;;6.22;2.15;;;;;;;;;;5057730;28;20728;-53
2022/06/13 01:04:11;;;;;;;5.57;2.22;;;;;;;;;;5065412;28;20254;-52
2022/06/13 01:06:40;;;;;;;5.80;2.35;;;;;;;;;;5067536;28;20713;-53
2022/06/13 01:09:07;;;;;;;7.82;2.78;;;;;;;;;;5063094;28;20236;-51
2022/06/13 01:11:33;;;;;;;4.22;1.75;;;;;;;;;;5063358;28;20799;-51
2022/06/13 01:14:11;;;;;;;3.65;1.70;;;;;;;;;;5063112;28;20323;-51
2022/06/13 01:16:43;;;;;;;2.30;2.10;;;;;;;;;;5057936;28;20250;-52
2022/06/13 01:19:24;;;;;;;5.18;2.15;;;;;;;;;;5059600;28;20231;-52
2022/06/13 01:21:55;;;;;;;2.97;2.00;;;;;;;;;;5059570;28;20237;-51
2022/06/13 01:24:37;;;;;;;7.47;2.45;;;;;;;;;;5058227;28;21006;-51
2022/06/13 01:27:22;;;;;;;4.25;1.83;;;;;;;;;;5063669;28;20253;-52
2022/06/13 01:29:52;;;;;;;2.95;2.05;;;;;;;;;;5062757;28;20228;-51
2022/06/13 01:32:31;;;;;;;4.78;2.63;;;;;;;;;;5059309;28;20244;-50
2022/06/13 01:35:07;;;;;;;3.20;2.03;;;;;;;;;;5066282;28;20351;-50
2022/06/13 01:37:38;;;;;;;6.68;1.92;;;;;;;;;;5065716;28;20227;-51
2022/06/13 01:40:08;;;;;;;3.72;1.52;;;;;;;;;;5057289;28;20231;-52
2022/06/13 01:42:39;;;;;;;6.07;2.10;;;;;;;;;;5063815;28;20257;-52
2022/06/13 01:45:08;;;;;;;5.50;2.40;;;;;;;;;;5063682;28;20250;-52
2022/06/13 01:47:42;;;;;;;8.20;2.85;;;;;;;;;;5065418;28;20228;-51
2022/06/13 01:50:14;;;;;;;7.80;3.25;;;;;;;;;;5061529;28;20237;-51
2022/06/13 01:52:43;;;;;;;6.88;2.95;;;;;;;;;;5065558;28;20230;-52
2022/06/13 01:55:16;;;;;;;5.20;2.67;;;;;;;;;;5059053;28;20235;-51
2022/06/13 01:57:47;;;;;;;5.72;2.72;;;;;;;;;;5049354;28;20235;-52
2022/06/13 02:00:16;;;;;;;5.45;2.80;;;;;;;;;;5054394;28;20779;-51
2022/06/13 02:02:46;;;;;;;5.55;2.47;;;;;;;;;;5063856;28;20231;-51
2022/06/13 02:05:16;;;;;;;8.18;2.10;;;;;;;;;;5061828;28;20781;-51
2022/06/13 02:07:45;;;;;;;5.13;2.50;;;;;;;;;;5064702;28;20227;-52
2022/06/13 02:10:14;;;;;;;6.25;2.50;;;;;;;;;;5061781;28;20235;-52
2022/06/13 02:12:42;;;;;;;5.50;2.20;;;;;;;;;;5056786;28;20267;-52
2022/06/13 02:15:12;;;;;;;6.70;2.33;;;;;;;;;;5060534;28;20322;-52
2022/06/13 02:17:40;;;;;;;4.90;2.97;;;;;;;;;;5066387;28;20354;-50
2022/06/13 02:20:11;;;;;;;4.68;2.28;;;;;;;;;;5062583;28;20230;-51
2022/06/13 02:22:39;;;;;;;6.93;2.58;;;;;;;;;;5057477;28;20732;-52
2022/06/13 02:25:07;;;;;;;5.70;2.35;;;;;;;;;;5064258;28;20232;-51
2022/06/13 02:27:34;;;;;;;3.78;2.50;;;;;;;;;;5062213;28;20239;-51
2022/06/13 02:30:05;;;;;;;6.07;3.25;;;;;;;;;;5060481;28;20227;-51
2022/06/13 02:32:34;;;;;;;3.90;2.17;;;;;;;;;;5058557;28;20239;-52
2022/06/13 02:35:02;;;;;;;6.53;3.03;;;;;;;;;;5056426;28;20219;-50
2022/06/13 02:37:31;;;;;;;4.80;2.40;;;;;;;;;;5065834;28;20269;-51
2022/06/13 02:40:01;;;;;;;5.70;2.03;;;;;;;;;;5051734;28;20281;-52
2022/06/13 02:42:31;;;;;;;5.25;2.17;;;;;;;;;;5054871;28;20245;-51
2022/06/13 02:45:00;;;;;;;6.80;2.38;;;;;;;;;;5057295;28;20227;-51
2022/06/13 02:47:31;;;;;;;3.25;2.50;;;;;;;;;;5064473;28;20231;-51
2022/06/13 02:50:00;;;;;;;5.85;2.55;;;;;;;;;;5059574;28;20223;-51
2022/06/13 02:52:29;;;;;;;4.63;2.42;;;;;;;;;;5061780;28;20310;-52
2022/06/13 02:54:58;;;;;;;4.93;2.25;;;;;;;;;;5063751;28;20239;-51
2022/06/13 02:57:46;;;;;;;6.38;2.10;;;;;;;;;;5065316;28;20227;-52
2022/06/13 03:00:20;;;;;;;6.60;2.50;;;;;;;;;;5048841;28;20235;-51
2022/06/13 03:02:58;;;;;;;5.93;2.22;;;;;;;;;;5058220;28;20258;-51
2022/06/13 03:05:43;;;;;;;3.95;2.25;;;;;;;;;;5061448;28;20231;-52
2022/06/13 03:08:15;;;;;;;6.28;2.83;;;;;;;;;;5058950;28;20235;-50
2022/06/13 03:10:45;;;;;;;3.88;2.10;;;;;;;;;;5064268;28;20284;-51
2022/06/13 03:13:14;;;;;;;3.05;1.80;;;;;;;;;;5059114;28;20239;-51
2022/06/13 03:15:44;;;;;;;4.47;2.30;;;;;;;;;;5062526;28;20223;-51
2022/06/13 03:18:15;;;;;;;4.60;2.28;;;;;;;;;;5060165;28;20238;-51
2022/06/13 03:20:45;;;;;;;3.88;2.50;;;;;;;;;;5058059;28;20241;-50
2022/06/13 03:23:13;;;;;;;4.82;2.58;;;;;;;;;;5055413;28;20709;-53
2022/06/13 03:25:41;;;;;;;5.32;2.58;;;;;;;;;;5057343;28;20743;-52
2022/06/13 03:28:12;;;;;;;4.70;2.17;;;;;;;;;;5064750;28;20219;-51
2022/06/13 03:30:43;;;;;;;4.25;2.33;;;;;;;;;;5062358;28;20259;-52
2022/06/13 03:35:58;;;;;;;4.68;2.20;;;;;;;;;;5061109;28;20254;-50
2022/06/13 03:38:27;;;;;;;5.88;2.20;;;;;;;;;;5063027;28;20313;-51
2022/06/13 03:40:55;;;;;;;4.47;2.03;;;;;;;;;;5064425;28;20238;-51
2022/06/13 03:43:25;;;;;;;5.53;2.13;;;;;;;;;;5054820;28;20235;-52
2022/06/13 03:45:54;;;;;;;4.30;2.17;;;;;;;;;;5065246;28;20235;-52
2022/06/13 03:48:24;;;;;;;5.82;2.63;;;;;;;;;;5063731;28;20235;-51
2022/06/13 03:50:52;;;;;;;5.68;2.85;;;;;;;;;;5061560;28;20231;-53
2022/06/13 03:53:20;;;;;;;5.68;2.38;;;;;;;;;;5066719;28;20231;-53
2022/06/13 03:55:48;;;;;;;3.63;2.60;;;;;;;;;;5067403;28;20230;-52
2022/06/13 03:58:16;;;;;;;5.53;2.35;;;;;;;;;;5061058;28;20238;-52
2022/06/13 04:00:47;;;;;;;6.10;2.45;;;;;;;;;;5066201;28;20235;-51
2022/06/13 04:03:14;;;;;;;4.38;2.47;;;;;;;;;;5054707;28;20235;-53
2022/06/13 04:05:56;;;;;;;7.72;3.05;;;;;;;;;;5067438;28;20235;-51
2022/06/13 04:08:23;;;;;;;6.18;2.55;;;;;;;;;;5052532;28;20227;-52
2022/06/13 04:10:52;;;;;;;6.50;2.28;;;;;;;;;;5058211;28;20241;-65
2022/06/13 04:13:27;;;;;;;5.43;2.03;;;;;;;;;;5066885;28;20239;-51
2022/06/13 04:16:02;;;;;;;4.63;2.80;;;;;;;;;;5057231;28;20249;-52
2022/06/13 04:18:37;;;;;;;5.90;2.47;;;;;;;;;;5065349;28;20218;-52
2022/06/13 04:21:09;;;;;;;4.45;2.60;;;;;;;;;;5059293;28;20770;-52
2022/06/13 04:23:37;;;;;;;4.88;2.83;;;;;;;;;;5067866;28;20245;-52
2022/06/13 04:26:08;;;;;;;3.20;2.60;;;;;;;;;;5061218;28;20231;-51
2022/06/13 04:28:39;;;;;;;7.72;3.20;;;;;;;;;;5059436;28;20227;-51
2022/06/13 04:31:10;;;;;;;4.43;2.58;;;;;;;;;;5064423;28;20227;-52
2022/06/13 04:33:38;;;;;;;10.77;3.40;;;;;;;;;;5060088;28;20238;-52
2022/06/13 04:36:05;;;;;;;4.55;2.63;;;;;;;;;;5060673;28;20308;-52
2022/06/13 04:38:33;;;;;;;5.03;2.97;;;;;;;;;;5057899;28;20242;-54
2022/06/13 04:41:01;;;;;;;4.15;2.55;;;;;;;;;;5067728;28;20238;-52
2022/06/13 04:43:28;;;;;;;5.63;2.75;;;;;;;;;;5065529;28;20329;-53
2022/06/13 04:45:57;;;;;;;3.83;2.75;;;;;;;;;;5059596;28;20786;-52
2022/06/13 04:48:25;;;;;;;9.57;3.38;;;;;;;;;;5066625;28;20235;-51
2022/06/13 04:50:54;;;;;;;5.63;2.78;;;;;;;;;;5059426;28;20501;-53
2022/06/13 04:53:23;;;;;;;4.30;2.97;;;;;;;;;;5067456;28;20242;-52
2022/06/13 04:55:50;;;;;;;7.32;3.10;;;;;;;;;;5065803;28;20249;-53
2022/06/13 04:58:19;;;;;;;8.88;3.83;;;;;;;;;;5065643;28;20354;-51
2022/06/13 05:00:47;;;;;;;6.03;2.90;;;;;;;;;;5057950;28;20239;-52
2022/06/13 05:03:19;;;;;;;6.20;2.30;;;;;;;;;;5063477;28;20238;-68
2022/06/13 05:05:51;;;;;;;2.55;2.10;;;;;;;;;;5060452;28;20242;-52
2022/06/13 05:08:22;;;;;;;7.78;2.65;;;;;;;;;;5061768;28;20237;-51
2022/06/13 05:10:50;;;;;;;9.00;2.50;;;;;;;;;;5066251;28;20314;-52
2022/06/13 05:13:17;;;;;;;4.15;2.30;;;;;;;;;;5064266;28;20227;-51
2022/06/13 05:15:45;;;;;;;6.93;2.67;;;;;;;;;;5063870;28;20239;-52
2022/06/13 05:18:22;;;;;;;8.85;3.20;;;;;;;;;;5057507;28;20263;-52
2022/06/13 05:20:59;;;;;;;7.18;3.55;;;;;;;;;;5066840;28;20231;-52
2022/06/13 05:23:32;;;;;;;6.68;3.13;;;;;;;;;;5064846;28;20776;-51
2022/06/13 05:26:00;;;;;;;3.78;2.97;;;;;;;;;;5061831;28;20250;-52
2022/06/13 05:28:29;;;;;;;4.30;2.63;;;;;;;;;;5059699;28;20238;-52
2022/06/13 05:30:56;;;;;;;4.13;2.70;;;;;;;;;;5064565;28;20246;-51
2022/06/13 05:33:23;;;;;;;2.92;2.67;;;;;;;;;;5064369;28;20247;-52
2022/06/13 05:35:53;;;;;;;6.57;3.33;;;;;;;;;;5065240;28;20232;-53
2022/06/13 05:38:21;;;;;;;5.22;2.60;;;;;;;;;;5062594;28;20249;-51
2022/06/13 05:40:47;;;;;;;6.28;2.92;;;;;;;;;;5057833;28;20232;-51
2022/06/13 05:43:14;;;;;;;4.45;2.55;;;;;;;;;;5065188;28;20250;-52
2022/06/13 05:45:41;;;;;;;5.38;2.05;;;;;;;;;;5066020;28;20235;-51
2022/06/13 05:48:11;;;;;;;6.78;2.53;;;;;;;;;;5063252;28;20234;-51
2022/06/13 05:50:37;;;;;;;4.82;3.13;;;;;;;;;;5062766;28;20224;-51
2022/06/13 05:53:05;;;;;;;3.65;2.05;;;;;;;;;;5064934;28;20257;-52
2022/06/13 05:55:32;;;;;;;6.28;2.75;;;;;;;;;;5065658;28;20262;-52
2022/06/13 05:57:58;;;;;;;5.00;2.80;;;;;;;;;;5062201;28;20235;-52
2022/06/13 06:00:26;;;;;;;6.13;2.38;;;;;;;;;;5065191;28;20238;-52
2022/06/13 06:02:52;;;;;;;2.83;2.33;;;;;;;;;;5061681;28;20321;-53
2022/06/13 06:05:19;;;;;;;3.40;2.53;;;;;;;;;;5067138;28;20227;-52
2022/06/13 06:07:45;;;;;;;6.53;2.80;;;;;;;;;;5058304;28;20889;-51
2022/06/13 06:10:16;;;;;;;3.90;2.17;;;;;;;;;;5058823;28;20227;-51
2022/06/13 06:12:43;;;;;;;4.00;2.30;;;;;;;;;;5059950;28;20239;-52
2022/06/13 06:15:10;;;;;;;3.92;2.35;;;;;;;;;;5057428;28;20252;-58
2022/06/13 06:17:36;;;;;;;4.13;2.20;;;;;;;;;;5055264;28;20266;-52
2022/06/13 06:20:03;;;;;;;4.22;2.55;;;;;;;;;;5065699;28;20265;-51
2022/06/13 06:22:30;;;;;;;3.78;1.73;;;;;;;;;;5054607;28;20236;-52
2022/06/13 06:24:56;;;;;;;6.82;2.78;;;;;;;;;;5052328;28;20241;-52
2022/06/13 06:27:24;;;;;;;5.53;2.28;;;;;;;;;;5060724;28;20243;-51
2022/06/13 06:29:50;;;;;;;8.88;2.33;;;;;;;;;;5053152;28;20696;-54
2022/06/13 06:32:16;;;;;;;4.60;2.38;;;;;;;;;;5060046;28;20246;-50
2022/06/13 06:34:43;;;;;;;7.60;2.60;;;;;;;;;;5063256;28;20303;-52
2022/06/13 06:37:12;;;;;;;4.40;2.03;;;;;;;;;;5064587;28;20235;-51
2022/06/13 06:39:39;;;;;;;6.82;2.25;;;;;;;;;;5063902;28;20234;-51
2022/06/13 06:42:06;;;;;;;5.07;1.92;;;;;;;;;;5058821;28;20231;-51
2022/06/13 06:44:34;;;;;;;5.38;2.30;;;;;;;;;;5062141;28;20223;-51
2022/06/13 06:47:00;;;;;;;5.15;2.25;;;;;;;;;;5054512;28;20241;-51
2022/06/13 06:49:32;;;;;;;3.70;1.75;;;;;;;;;;5057328;28;20938;-52
2022/06/13 06:51:58;;;;;;;4.47;2.55;;;;;;;;;;5064577;28;20231;-50
2022/06/13 06:59:59;;;;;;;4.95;2.30;;;;;;;;;;5056433;28;20230;-53
2022/06/13 07:02:27;;;;;;;3.40;1.80;;;;;;;;;;5061851;28;20425;-52
2022/06/13 07:04:55;;;;;;;3.65;1.85;;;;;;;;;;5065071;28;20235;-52
2022/06/13 07:07:22;;;;;;;3.70;2.08;;;;;;;;;;5063602;28;20523;-52
2022/06/13 07:09:48;;;;;;;4.80;1.75;;;;;;;;;;5062126;28;20239;-51
2022/06/13 07:12:14;;;;;;;5.03;1.92;;;;;;;;;;5057548;28;20242;-51
2022/06/13 07:14:41;;;;;;;3.60;2.05;;;;;;;;;;5062142;28;20245;-50
2022/06/13 07:17:09;;;;;;;5.13;1.65;;;;;;;;;;5062228;28;20253;-52
2022/06/13 07:19:36;;;;;;;4.43;1.95;;;;;;;;;;5061327;28;20255;-53
2022/06/13 07:22:03;;;;;;;5.95;2.13;;;;;;;;;;5060527;28;20236;-50
2022/06/13 07:24:31;;;;;;;5.43;1.90;;;;;;;;;;5059209;28;20225;-52
2022/06/13 07:26:57;;;;;;;2.65;1.88;;;;;;;;;;5059915;28;20232;-52
2022/06/13 07:29:24;;;;;;;5.95;1.60;;;;;;;;;;5068253;28;20647;-52
2022/06/13 07:31:52;;;;;;;5.70;2.42;;;;;;;;;;5064894;28;20243;-51
2022/06/13 07:34:22;;;;;;;7.38;1.80;;;;;;;;;;5066976;28;20237;-53
2022/06/13 07:36:48;;;;;;;4.43;1.98;;;;;;;;;;5067198;28;20281;-52
2022/06/13 07:39:15;;;;;;;3.20;1.42;;;;;;;;;;5067748;28;20238;-51
2022/06/13 07:41:41;;;;;;;2.95;1.55;;;;;;;;;;5067887;28;20269;-51
2022/06/13 07:44:09;;;;;;;5.32;1.55;;;;;;;;;;5064847;28;20227;-52
2022/06/13 07:46:35;;;;;;;5.88;2.03;;;;;;;;;;5067193;28;20235;-52
2022/06/13 07:49:01;;;;;;;2.05;1.35;;;;;;;;;;5062248;28;20702;-51
2022/06/13 07:51:29;;;;;;;4.10;1.58;;;;;;;;;;5068648;28;20291;-52
2022/06/13 07:53:56;;;;;;;5.03;1.40;;;;;;;;;;5067455;28;20736;-52
2022/06/13 07:56:24;;;;;;;4.03;1.52;;;;;;;;;;5067494;28;20246;-51
2022/06/13 07:58:51;;;;;;;2.33;2.03;;;;;;;;;;5066870;28;20246;-51
2022/06/13 08:01:19;;;;;;;4.07;1.42;;;;;;;;;;5065151;28;20322;-52
2022/06/13 08:03:45;;;;;;;4.75;1.75;;;;;;;;;;5066533;28;20231;-52
2022/06/13 08:06:12;;;;;;;3.85;2.15;;;;;;;;;;5065337;28;20246;-52
2022/06/13 08:08:40;;;;;;;5.53;1.83;;;;;;;;;;5064458;28;20618;-52
2022/06/13 08:11:08;;;;;;;4.10;1.33;;;;;;;;;;5054793;28;20250;-51
2022/06/13 08:13:34;;;;;;;8.88;1.83;;;;;;;;;;5056598;28;20251;-52
2022/06/13 08:16:01;;;;;;;3.85;2.13;;;;;;;;;;5061397;28;20284;-52
2022/06/13 08:18:27;;;;;;;2.72;1.50;;;;;;;;;;5056779;28;20287;-52
2022/06/13 08:20:54;;;;;;;3.38;1.67;;;;;;;;;;5056281;28;20253;-50
2022/06/13 08:23:21;;;;;;;2.88;1.42;;;;;;;;;;5066320;28;20756;-53
2022/06/13 08:25:49;;;;;;;2.85;1.80;;;;;;;;;;5064568;28;20237;-51
2022/06/13 08:28:16;;;;;;;2.08;1.30;;;;;;;;;;5058096;28;20327;-51
2022/06/13 08:30:47;;;;;;;2.38;1.33;;;;;;;;;;5058500;28;20242;-51
2022/06/13 08:33:13;;;;;;;4.30;1.55;;;;;;;;;;5065880;28;20250;-51
2022/06/13 08:35:40;;;;;;;5.80;2.50;;;;;;;;;;5057755;28;20601;-51
2022/06/13 08:38:06;;;;;;;3.65;1.58;;;;;;;;;;5061711;28;20242;-52
2022/06/13 08:40:35;;;;;;;3.70;1.95;;;;;;;;;;5062123;28;20235;-51
2022/06/13 08:43:09;;;;;;;3.03;1.38;;;;;;;;;;5059089;28;20236;-51
2022/06/13 08:45:37;;;;;;;5.15;1.83;;;;;;;;;;5055793;28;20387;-52
2022/06/13 08:48:07;;;;;;;3.75;1.65;;;;;;;;;;5060278;28;20231;-51
2022/06/13 08:50:37;;;;;;;3.08;1.95;;;;;;;;;;5065647;28;20235;-52
2022/06/13 08:53:06;;;;;;;5.70;2.22;;;;;;;;;;5065899;28;20259;-51
2022/06/13 08:55:35;;;;;;;7.47;2.03;;;;;;;;;;5060928;28;20246;-51
2022/06/13 08:58:07;;;;;;;5.15;2.42;;;;;;;;;;5059190;28;20233;-51
2022/06/13 09:00:35;;;;;;;6.18;1.85;;;;;;;;;;5059495;28;20226;-51
2022/06/13 09:03:06;;;;;;;3.35;1.90;;;;;;;;;;5059043;28;20239;-51
2022/06/13 09:05:37;;;;;;;5.50;2.13;;;;;;;;;;5062032;28;20683;-51
2022/06/13 09:08:08;;;;;;;6.85;2.38;;;;;;;;;;5057929;28;20220;-52
2022/06/13 09:10:37;;;;;;;10.38;2.65;;;;;;;;;;5065973;28;20235;-51
2022/06/13 09:13:09;;;;;;;7.05;2.17;;;;;;;;;;5058856;28;20232;-50
2022/06/13 09:15:40;;;;;;;5.97;2.38;;;;;;;;;;5065986;28;20266;-52
2022/06/13 09:18:10;;;;;;;4.13;2.00;;;;;;;;;;5067402;28;20262;-52
2022/06/13 09:20:40;;;;;;;3.42;1.70;;;;;;;;;;5066253;28;20231;-51
2022/06/13 09:23:12;;;;;;;4.70;1.92;;;;;;;;;;5066416;28;20333;-53
2022/06/13 09:25:43;;;;;;;5.72;2.13;;;;;;;;;;5066248;28;20238;-52
2022/06/13 09:28:14;;;;;;;5.55;2.55;;;;;;;;;;5066360;28;20731;-51
2022/06/13 09:30:44;;;;;;;5.20;1.63;;;;;;;;;;5065751;28;20681;-52
2022/06/13 09:33:13;;;;;;;8.27;2.03;;;;;;;;;;5059926;28;20242;-51
2022/06/13 09:35:44;;;;;;;4.43;2.25;;;;;;;;;;5063747;28;20264;-52
2022/06/13 09:38:15;;;;;;;4.20;1.55;;;;;;;;;;5065208;28;20250;-50
2022/06/13 09:40:47;;;;;;;3.97;1.80;;;;;;;;;;5050023;28;20816;-50
2022/06/13 09:43:21;;;;;;;6.85;2.45;;;;;;;;;;5063727;28;20246;-52
2022/06/13 09:45:51;;;;;;;2.85;1.73;;;;;;;;;;5061364;28;20239;-52
2022/06/13 09:48:22;;;;;;;9.40;2.08;;;;;;;;;;5055767;28;20306;-52
2022/06/13 09:50:53;;;;;;;6.03;2.67;;;;;;;;;;5063232;28;20231;-51
2022/06/13 09:53:26;;;;;;;3.05;1.73;;;;;;;;;;5052159;28;20597;-51
2022/06/13 09:55:57;;;;;;;6.00;2.03;;;;;;;;;;5059267;28;20235;-50
2022/06/13 09:58:31;;;;;;;4.57;2.00;;;;;;;;;;5058857;28;20227;-50
2022/06/13 10:01:02;;;;;;;4.38;1.63;;;;;;;;;;5059507;28;20319;-51
2022/06/13 10:03:32;;;;;;;4.45;1.95;;;;;;;;;;5059374;28;20227;-51
2022/06/13 10:06:03;;;;;;;5.97;2.58;;;;;;;;;;5059215;28;20233;-50
2022/06/13 10:08:41;;;;;;;4.60;2.03;;;;;;;;;;5058743;28;20320;-52
2022/06/13 10:11:13;;;;;;;3.60;1.95;;;;;;;;;;5063801;28;20276;-53
2022/06/13 10:13:48;;;;;;;4.28;1.65;;;;;;;;;;5056354;28;20248;-51
2022/06/13 10:16:18;;;;;;;3.83;2.42;;;;;;;;;;5060288;28;20246;-51
2022/06/13 10:18:51;;;;;;;3.20;1.80;;;;;;;;;;5062043;28;20231;-51
2022/06/13 10:21:23;;;;;;;3.35;1.83;;;;;;;;;;5057360;28;20369;-52
2022/06/13 10:23:53;;;;;;;2.40;1.83;;;;;;;;;;5063273;28;20233;-51
2022/06/13 10:26:24;;;;;;;5.45;1.80;;;;;;;;;;5057974;28;20231;-52
2022/06/13 10:28:58;;;;;;;3.28;1.63;;;;;;;;;;5054567;28;20242;-52
2022/06/13 10:31:28;;;;;;;2.47;1.40;;;;;;;;;;5055937;28;20293;-52
2022/06/13 10:33:58;;;;;;;4.30;1.73;;;;;;;;;;5064018;28;20751;-52
2022/06/13 10:36:28;;;;;;;5.90;2.03;;;;;;;;;;5058641;28;20247;-51
2022/06/13 10:38:57;;;;;;;3.67;1.58;;;;;;;;;;5058411;28;20237;-52
2022/06/13 10:41:24;;;;;;;2.45;1.50;;;;;;;;;;5063685;28;20253;-53
2022/06/13 10:43:50;;;;;;;3.20;1.50;;;;;;;;;;5060461;28;20689;-52
2022/06/13 10:46:18;;;;;;;6.78;1.55;;;;;;;;;;5052977;28;20239;-52
2022/06/13 10:48:46;;;;;;;5.60;2.05;;;;;;;;;;5056436;28;20237;-50
2022/06/13 10:51:13;;;;;;;3.70;1.75;;;;;;;;;;5064954;28;20247;-51
2022/06/13 10:53:41;;;;;;;7.72;1.50;;;;;;;;;;5061110;28;20245;-50
2022/06/13 10:56:09;;;;;;;2.03;1.23;;;;;;;;;;5059171;28;20231;-52
2022/06/13 10:58:39;;;;;;;6.47;1.85;;;;;;;;;;5059618;28;20241;-52
2022/06/13 11:01:08;;;;;;;2.33;1.60;;;;;;;;;;5056652;28;20235;-50
2022/06/13 11:03:36;;;;;;;3.65;1.98;;;;;;;;;;5060483;28;20243;-51
2022/06/13 11:06:04;;;;;;;2.40;1.58;;;;;;;;;;5061865;28;20228;-51
2022/06/13 11:08:31;;;;;;;4.30;1.90;;;;;;;;;;5060071;28;20230;-52
2022/06/13 11:10:59;;;;;;;2.05;1.40;;;;;;;;;;5057463;28;20235;-51
2022/06/13 11:13:26;;;;;;;4.60;2.10;;;;;;;;;;5057507;28;20235;-51
2022/06/13 11:24:14;;;;;;;3.47;1.42;;;;;;;;;;5065038;28;20237;-51
2022/06/13 11:29:25;;;;;;;5.93;1.90;;;;;;;;;;5061618;28;21375;-52
2022/06/13 11:31:53;;;;;;;2.28;1.85;;;;;;;;;;5063990;28;20242;-51
2022/06/13 11:34:26;;;;;;;7.32;2.28;;;;;;;;;;5059637;28;20693;-51
2022/06/13 11:37:00;;;;;;;4.38;2.30;;;;;;;;;;5061034;28;20265;-51
2022/06/13 11:39:33;;;;;;;2.35;1.55;;;;;;;;;;5058985;28;20335;-51
2022/06/13 11:42:00;;;;;;;4.47;1.48;;;;;;;;;;5061670;28;20239;-51
2022/06/13 11:44:26;;;;;;;5.55;2.05;;;;;;;;;;5061432;28;20235;-51
2022/06/13 11:46:57;;;;;;;4.70;1.98;;;;;;;;;;5061232;28;20238;-52
2022/06/13 11:49:28;;;;;;;2.75;1.27;;;;;;;;;;5057489;28;20231;-51
2022/06/13 11:51:57;;;;;;;2.92;1.70;;;;;;;;;;5058837;28;20235;-50
2022/06/13 11:54:25;;;;;;;4.57;1.98;;;;;;;;;;5054686;28;20240;-52
2022/06/13 11:57:08;;;;;;;3.17;1.52;;;;;;;;;;5054682;28;20242;-51
2022/06/13 11:59:34;;;;;;;3.50;2.00;;;;;;;;;;5051811;28;20224;-51
2022/06/13 12:02:00;;;;;;;3.90;1.90;;;;;;;;;;5051197;28;20236;-51
2022/06/13 12:04:31;;;;;;;3.78;1.45;;;;;;;;;;5059565;28;20239;-50
2022/06/13 12:06:58;;;;;;;5.03;1.67;;;;;;;;;;5064094;28;20237;-51
2022/06/13 12:09:29;;;;;;;8.05;2.17;;;;;;;;;;5057937;28;20230;-52
2022/06/13 12:11:57;;;;;;;10.18;2.83;;;;;;;;;;5065905;28;21329;-54
2022/06/13 12:14:25;;;;;;;8.30;2.13;;;;;;;;;;5055654;28;20271;-52
2022/06/13 12:16:56;;;;;;;12.25;2.33;;;;;;;;;;5058315;28;20250;-51
2022/06/13 12:19:31;;;;;;;5.30;1.70;;;;;;;;;;5049778;28;20232;-64
2022/06/13 12:22:01;;;;;;;9.07;2.15;;;;;;;;;;5063071;28;20292;-52
2022/06/13 12:24:31;;;;;;;2.45;1.30;;;;;;;;;;5057503;28;20227;-53
2022/06/13 12:27:02;;;;;;;3.42;1.55;;;;;;;;;;5065303;28;20231;-52
2022/06/13 12:29:35;;;;;;;1.95;1.13;;;;;;;;;;5066186;28;20231;-51
2022/06/13 12:32:05;;;;;;;4.22;1.35;;;;;;;;;;5055870;28;20230;-51
2022/06/13 12:34:37;;;;;;;4.03;1.70;;;;;;;;;;5058807;28;20239;-52
2022/06/13 12:37:12;;;;;;;5.43;1.33;;;;;;;;;;5058260;28;20262;-54
2022/06/13 12:39:47;;;;;;;1.27;1.17;;;;;;;;;;5064965;28;20240;-51
2022/06/13 12:42:20;;;;;;;0.73;0.70;;;;;;;;;;5055279;28;20325;-51
2022/06/13 12:45:03;;;;;;;1.90;1.20;;;;;;;;;;5053532;28;20293;-51
2022/06/13 12:47:39;;;;;;;1.27;1.05;;;;;;;;;;5058690;28;20231;-51
2022/06/13 12:50:20;;;;;;;2.28;1.20;;;;;;;;;;5063053;28;20263;-52
2022/06/13 12:52:54;;;;;;;5.47;1.23;;;;;;;;;;5056377;28;20239;-51
2022/06/13 12:55:43;;;;;;;2.08;1.10;;;;;;;;;;5059788;28;20236;-51
2022/06/13 12:58:19;;;;;;;2.10;1.08;;;;;;;;;;5055548;28;20719;-51
2022/06/13 13:00:47;;;;;;;3.70;1.27;;;;;;;;;;5053663;28;20234;-51
2022/06/13 13:03:25;;;;;;;4.88;1.77;;;;;;;;;;5059619;28;20237;-52
2022/06/13 13:05:57;;;;;;;2.20;1.30;;;;;;;;;;5065330;28;20628;-51
2022/06/13 13:08:33;;;;;;;2.35;1.38;;;;;;;;;;5063911;28;20677;-51
2022/06/13 13:11:06;;;;;;;4.03;1.90;;;;;;;;;;5060633;28;20230;-51
2022/06/13 13:13:40;;;;;;;2.20;1.58;;;;;;;;;;5062639;28;20231;-51
2022/06/13 13:16:07;;;;;;;2.33;1.17;;;;;;;;;;5060165;28;20322;-51
2022/06/13 13:18:39;;;;;;;3.35;1.42;;;;;;;;;;5065672;28;20314;-51
2022/06/13 13:21:10;;;;;;;2.88;1.48;;;;;;;;;;5062758;28;20564;-51
2022/06/13 13:23:41;;;;;;;1.67;1.40;;;;;;;;;;5066135;28;20240;-51
2022/06/13 13:26:15;;;;;;;3.10;1.80;;;;;;;;;;5065187;28;20322;-51
2022/06/13 13:28:46;;;;;;;3.20;1.70;;;;;;;;;;5064550;28;20554;-53
2022/06/13 13:31:18;;;;;;;5.53;1.92;;;;;;;;;;5057273;28;20324;-58
2022/06/13 13:33:52;;;;;;;2.13;1.35;;;;;;;;;;5061743;28;20239;-52
2022/06/13 13:36:22;;;;;;;1.27;0.90;;;;;;;;;;5063558;28;20235;-51
2022/06/13 13:38:52;;;;;;;1.10;1.00;;;;;;;;;;5064595;28;20745;-51
2022/06/13 13:41:21;;;;;;;2.08;0.88;;;;;;;;;;5060647;28;20241;-52
2022/06/13 13:43:51;;;;;;;1.52;0.85;;;;;;;;;;5062429;28;20255;-51
2022/06/13 13:46:19;;;;;;;1.15;0.93;;;;;;;;;;5059600;28;20236;-50
2022/06/13 13:48:48;;;;;;;4.25;1.40;;;;;;;;;;5056954;28;20234;-50
2022/06/13 13:51:18;;;;;;;1.10;0.90;;;;;;;;;;5058306;28;20235;-53
2022/06/13 13:53:46;;;;;;;5.75;1.17;;;;;;;;;;5055821;28;20240;-51
2022/06/13 13:56:18;;;;;;;0.80;0.80;;;;;;;;;;5052206;28;20323;-50
2022/06/13 13:58:46;;;;;;;2.75;1.35;;;;;;;;;;5063527;28;20243;-51
2022/06/13 14:01:21;;;;;;;2.45;0.82;;;;;;;;;;5057136;28;20561;-51
2022/06/13 14:03:55;;;;;;;2.17;1.13;;;;;;;;;;5060199;28;20472;-50
2022/06/13 14:06:25;;;;;;;1.77;1.20;;;;;;;;;;5061099;28;20668;-51
2022/06/13 14:08:53;;;;;;;2.47;1.17;;;;;;;;;;5054285;28;20770;-51
2022/06/13 14:11:21;;;;;;;7.05;1.58;;;;;;;;;;5061907;28;20246;-51
2022/06/13 14:13:48;;;;;;;0.88;0.88;;;;;;;;;;5063875;28;20258;-51
2022/06/13 14:16:16;;;;;;;4.18;1.10;;;;;;;;;;5062019;28;20246;-51
2022/06/13 14:19:04;;;;;;;1.75;1.02;;;;;;;;;;5064387;28;20230;-51
2022/06/13 14:21:38;;;;;;;4.78;1.13;;;;;;;;;;5061502;28;20226;-52
2022/06/13 14:24:10;;;;;;;3.13;1.20;;;;;;;;;;5054144;28;20285;-50
2022/06/13 14:26:57;;;;;;;1.98;1.15;;;;;;;;;;5060993;28;20227;-51
2022/06/13 14:29:29;;;;;;;1.02;0.63;;;;;;;;;;5058183;28;20226;-52
2022/06/13 14:31:56;;;;;;;1.58;1.15;;;;;;;;;;5055356;28;20234;-52
2022/06/13 14:37:21;;;;;;;2.10;1.05;;;;;;;;;;5043193;28;20272;-51
2022/06/13 14:39:51;;;;;;;3.28;1.13;;;;;;;;;;5063179;28;20231;-51
2022/06/13 14:42:26;;;;;;;1.60;0.88;;;;;;;;;;5062448;28;20720;-51
2022/06/13 14:44:58;;;;;;;1.05;0.80;;;;;;;;;;5055880;28;20227;-51
2022/06/13 14:47:34;;;;;;;0.80;0.70;;;;;;;;;;5061388;28;20289;-53
2022/06/13 14:50:00;;;;;;;3.47;1.08;;;;;;;;;;5056702;28;20634;-52
2022/06/13 14:52:29;;;;;;;0.65;0.65;;;;;;;;;;5062920;28;20234;-59
2022/06/13 14:55:10;;;;;;;1.70;0.70;;;;;;;;;;5063498;28;20235;-52
2022/06/13 14:57:57;;;;;;;2.10;1.00;;;;;;;;;;5058427;28;20240;-51
2022/06/13 15:00:27;;;;;;;0.57;0.57;;;;;;;;;;5061548;28;20223;-51
2022/06/13 15:03:12;;;;;;;0.80;0.80;;;;;;;;;;5057052;28;20247;-52
2022/06/13 15:05:45;;;;;;;0.98;0.88;;;;;;;;;;5057696;28;20234;-53
2022/06/13 15:08:15;;;;;;;5.60;1.38;;;;;;;;;;5060142;28;20230;-52
2022/06/13 15:10:44;;;;;;;1.17;0.95;;;;;;;;;;5057100;28;20272;-52
2022/06/13 15:13:12;;;;;;;0.77;0.77;;;;;;;;;;5059643;28;20257;-51
2022/06/13 15:15:40;;;;;;;3.88;1.15;;;;;;;;;;5063617;28;20322;-50
2022/06/13 15:18:07;;;;;;;2.30;1.02;;;;;;;;;;5061294;28;20267;-51
2022/06/13 15:20:34;;;;;;;1.08;0.98;;;;;;;;;;5061380;28;20345;-51